地図

経路データ

SID SEASON NUMBER BASIN SUBBASIN NAME ISO_TIME NATURE LAT LON WMO_WIND WMO_PRES WMO_AGENCY TRACK_TYPE DIST2LAND LANDFALL IFLAG USA_AGENCY USA_ATCF_ID USA_LAT USA_LON USA_RECORD USA_STATUS USA_WIND USA_PRES USA_SSHS USA_R34_NE USA_R34_SE USA_R34_SW USA_R34_NW USA_R50_NE USA_R50_SE USA_R50_SW USA_R50_NW USA_R64_NE USA_R64_SE USA_R64_SW USA_R64_NW USA_POCI USA_ROCI USA_RMW USA_EYE TOKYO_LAT TOKYO_LON TOKYO_GRADE TOKYO_WIND TOKYO_PRES TOKYO_R50_DIR TOKYO_R50_LONG TOKYO_R50_SHORT TOKYO_R30_DIR TOKYO_R30_LONG TOKYO_R30_SHORT TOKYO_LAND CMA_LAT CMA_LON CMA_CAT CMA_WIND CMA_PRES HKO_LAT HKO_LON HKO_CAT HKO_WIND HKO_PRES NEWDELHI_LAT NEWDELHI_LON NEWDELHI_GRADE NEWDELHI_WIND NEWDELHI_PRES NEWDELHI_CI NEWDELHI_DP NEWDELHI_POCI REUNION_LAT REUNION_LON REUNION_TYPE REUNION_WIND REUNION_PRES REUNION_TNUM REUNION_CI REUNION_RMW REUNION_R34_NE REUNION_R34_SE REUNION_R34_SW REUNION_R34_NW REUNION_R50_NE REUNION_R50_SE REUNION_R50_SW REUNION_R50_NW REUNION_R64_NE REUNION_R64_SE REUNION_R64_SW REUNION_R64_NW BOM_LAT BOM_LON BOM_TYPE BOM_WIND BOM_PRES BOM_TNUM BOM_CI BOM_RMW BOM_R34_NE BOM_R34_SE BOM_R34_SW BOM_R34_NW BOM_R50_NE BOM_R50_SE BOM_R50_SW BOM_R50_NW BOM_R64_NE BOM_R64_SE BOM_R64_SW BOM_R64_NW BOM_ROCI BOM_POCI BOM_EYE BOM_POS_METHOD BOM_PRES_METHOD NADI_LAT NADI_LON NADI_CAT NADI_WIND NADI_PRES WELLINGTON_LAT WELLINGTON_LON WELLINGTON_WIND WELLINGTON_PRES DS824_LAT DS824_LON DS824_STAGE DS824_WIND DS824_PRES TD9636_LAT TD9636_LON TD9636_STAGE TD9636_WIND TD9636_PRES TD9635_LAT TD9635_LON TD9635_WIND TD9635_PRES TD9635_ROCI NEUMANN_LAT NEUMANN_LON NEUMANN_CLASS NEUMANN_WIND NEUMANN_PRES MLC_LAT MLC_LON MLC_CLASS MLC_WIND MLC_PRES USA_GUST BOM_GUST BOM_GUST_PER REUNION_GUST REUNION_GUST_PER USA_SEAHGT USA_SEARAD_NE USA_SEARAD_SE USA_SEARAD_SW USA_SEARAD_NW STORM_SPEED STORM_DIR
1958256N21090 1958 82 NI BB NOT_NAMED 1958-09-12 18:00:00 TS 20.6000 89.5000 main 119 116 O________O____ jtwc_io IO061958 20.6000 89.5000 -1 20.6000 89.5000 TC 2 294
1958256N21090 1958 82 NI BB NOT_NAMED 1958-09-12 21:00:00 TS 20.6425 89.3950 main 116 102 P________P____ IO061958 20.6425 89.3950 -1 20.6425 89.3950 TC 2 299
1958256N21090 1958 82 NI BB NOT_NAMED 1958-09-13 00:00:00 TS 20.7000 89.3000 main 102 90 O________O____ jtwc_io IO061958 20.7000 89.3000 -1 20.7000 89.3000 TC 25 2 311
1958256N21090 1958 82 NI BB NOT_NAMED 1958-09-13 03:00:00 TS 20.7866 89.2133 main 90 78 P________PO___ IO061958 20.7850 89.2149 -1 20.7850 89.2149 TC 25 20.8000 89.2000 1 3 316
1958256N21090 1958 82 NI BB NOT_NAMED 1958-09-13 06:00:00 TS 20.9060 89.0860 main 78 67 O________OP___ jtwc_io IO061958 20.9000 89.1000 -1 20.9000 89.1000 TC 25 20.9299 89.0301 1 4 311
1958256N21090 1958 82 NI BB NOT_NAMED 1958-09-13 09:00:00 TS 21.0522 88.8913 main 55 45 P________PP___ IO061958 21.0501 88.9001 -1 21.0501 88.9001 TC 25 21.0578 88.8681 1 5 309
1958256N21090 1958 82 NI BB NOT_NAMED 1958-09-13 12:00:00 TS 21.1939 88.7073 main 49 35 O________OP___ jtwc_io IO061958 21.2000 88.7000 -1 21.2000 88.7000 TC 25 21.1817 88.7220 1 4 312
1958256N21090 1958 82 NI BB NOT_NAMED 1958-09-13 15:00:00 TS 21.3000 88.5899 main 35 22 P________PO___ IO061958 21.3000 88.5849 -1 21.3000 88.5849 TC 25 21.3000 88.6000 1 3 318
1958256N21090 1958 82 NI BB NOT_NAMED 1958-09-13 18:00:00 TS 21.4047 88.5018 main 22 11 O________OP___ jtwc_io IO061958 21.4000 88.5000 -1 21.4000 88.5000 TC 25 21.4142 88.5054 1 3 325
1958256N21090 1958 82 NI BB NOT_NAMED 1958-09-13 21:00:00 TS 21.5316 88.4122 main 11 0 P________PP___ IO061958 21.5275 88.4074 -1 21.5275 88.4074 TC 25 21.5397 88.4217 1 3 328
1958256N21090 1958 82 NI BB NOT_NAMED 1958-09-14 00:00:00 TS 21.6985 88.3091 main 0 0 O________OP___ jtwc_io IO061958 21.7000 88.3000 -1 21.7000 88.3000 TC 25 21.6954 88.3271 1 4 330
1958256N21090 1958 82 NI BB NOT_NAMED 1958-09-14 03:00:00 TS 21.9133 88.1766 main 0 0 P________PO___ IO061958 21.9200 88.1649 -1 21.9200 88.1649 TC 25 21.9000 88.2000 1 6 331
1958256N21090 1958 82 NI BB NOT_NAMED 1958-09-14 06:00:00 TS 22.1956 88.0065 main 0 0 O________OP___ jtwc_io IO061958 22.2000 88.0000 -1 22.2000 88.0000 TC 25 22.1869 88.0194 1 7 332
1958256N21090 1958 82 NI BB NOT_NAMED 1958-09-14 09:00:00 TS 22.5350 87.8159 main 0 0 P________PP___ IO061958 22.5424 87.8224 -1 22.5424 87.8224 TC 25 22.5200 87.8029 1 8 331
1958256N21090 1958 82 NI BB NOT_NAMED 1958-09-14 12:00:00 TS 22.8894 87.5866 main 0 0 O________OP___ jtwc_io IO061958 22.9000 87.6000 -1 22.9000 87.6000 TC 25 22.8681 87.5599 1 8 325
1958256N21090 1958 82 NI BB NOT_NAMED 1958-09-14 15:00:00 TS 23.2100 87.3050 main 0 0 P________PO___ IO061958 23.2151 87.3075 -1 23.2151 87.3075 TC 25 23.2000 87.3000 1 8 319
1958256N21090 1958 82 NI BB NOT_NAMED 1958-09-14 18:00:00 TS 23.4967 87.0126 main 0 0 O________OP___ jtwc_io IO061958 23.5000 87.0000 -1 23.5000 87.0000 TC 25 23.4917 87.0316 1 8 317
1958256N21090 1958 82 NI BB NOT_NAMED 1958-09-14 21:00:00 TS 23.7534 86.7448 main 0 0 P________PP___ IO061958 23.7575 86.7351 -1 23.7575 86.7351 TC 25 23.7478 86.7578 1 7 316
1958256N21090 1958 82 NI BB NOT_NAMED 1958-09-15 00:00:00 TS 23.9900 86.4900 main 0 0 O________OP___ jtwc_io IO061958 24.0000 86.5000 -1 24.0000 86.5000 TC 25 23.9800 86.4801 1 7 312
1958256N21090 1958 82 NI BB NOT_NAMED 1958-09-15 03:00:00 NR 24.2000 86.2000 main 0 __________O___ IO061958 -1 TC 24.2000 86.2000 1 7 308

IBTrACS Databaseについて

本データベースは、米国NOAAが公開する1842年以降の世界の熱帯低気圧のベストトラックデータアーカイブInternational Best Track Archive for Climate Stewardship (IBTrACS)を、ウェブで閲覧しやすい形式に変換したものです。

最終更新日:2021-12-06